Time;durP1;ratioP1;P1;durP2;ratioP2;P2;SDS_P1;SDS_P2;PMS_P1;PMS_P2;Temp;Humidity;BMP_temperature;BMP_pressure;BME280_temperature;BME280_humidity;BME280_pressure;Samples;Min_cycle;Max_cycle;Signal;HPM_P1;HPM_P2
2022/10/29 00:02:16;;;;;;;0.88;0.45;;;;;;;16.00;68.13;101711.91;18306572;32;20124;-59
2022/10/29 00:12:21;;;;;;;0.30;0.30;;;;;;;15.87;68.40;101727.72;18306360;32;20428;-59
2022/10/29 00:22:24;;;;;;;0.20;0.20;;;;;;;15.89;68.40;101733.84;18307297;32;20144;-58
2022/10/29 00:32:28;;;;;;;0.30;0.30;;;;;;;15.95;68.32;101728.59;18305529;32;20102;-59
2022/10/29 00:42:31;;;;;;;0.30;0.30;;;;;;;15.87;68.50;101714.56;18305666;32;20452;-59
2022/10/29 00:52:42;;;;;;;0.35;0.35;;;;;;;15.93;68.30;101709.31;18306636;32;20093;-59
2022/10/29 01:02:45;;;;;;;0.32;0.32;;;;;;;15.95;68.23;101699.62;18304945;32;20086;-59
2022/10/29 01:13:02;;;;;;;0.70;0.70;;;;;;;15.77;69.09;101691.78;18305350;32;20452;-59
2022/10/29 01:23:15;;;;;;;0.30;0.30;;;;;;;15.77;69.01;101675.97;18304616;32;20377;-59
2022/10/29 01:33:23;;;;;;;0.77;0.65;;;;;;;15.86;68.87;101660.16;18305207;32;20105;-59
2022/10/29 01:43:29;;;;;;;0.62;0.37;;;;;;;15.84;68.88;101658.41;18304611;32;20120;-59
2022/10/29 01:53:36;;;;;;;0.65;0.65;;;;;;;15.85;68.87;101655.78;18303521;32;20741;-59
2022/10/29 02:03:46;;;;;;;0.65;0.52;;;;;;;15.31;71.33;101650.63;18304075;32;20387;-59
2022/10/29 02:13:56;;;;;;;0.32;0.32;;;;;;;15.52;70.65;101641.81;18301949;32;20077;-59
2022/10/29 02:23:59;;;;;;;0.85;0.85;;;;;;;15.81;69.45;101636.47;18302155;32;20093;-59
2022/10/29 02:34:04;;;;;;;0.65;0.65;;;;;;;15.86;69.45;101638.19;18301195;32;20382;-59
2022/10/29 02:44:07;;;;;;;0.65;0.65;;;;;;;15.85;69.45;101642.59;18300284;32;20105;-59
2022/10/29 02:54:11;;;;;;;0.88;0.32;;;;;;;15.85;69.49;101639.97;18299961;32;20097;-59
2022/10/29 03:04:15;;;;;;;3.50;1.27;;;;;;;15.73;70.03;101648.78;18300333;32;20758;-59
2022/10/29 03:14:19;;;;;;;1.77;0.68;;;;;;;15.78;69.76;101638.25;18307101;32;20507;-59
2022/10/29 03:24:22;;;;;;;1.10;0.43;;;;;;;15.86;69.38;101625.91;18308105;32;20129;-59
2022/10/29 03:34:27;;;;;;;1.05;0.45;;;;;;;15.76;69.66;101614.53;18305272;32;77837;-59
2022/10/29 03:44:30;;;;;;;0.65;0.65;;;;;;;15.77;69.87;101620.69;18307061;32;20485;-59
2022/10/29 03:54:35;;;;;;;0.20;0.20;;;;;;;15.82;69.79;101621.53;18306896;32;20094;-59
2022/10/29 04:04:38;;;;;;;0.93;0.80;;;;;;;15.79;69.94;101621.56;18306625;32;20452;-59
2022/10/29 04:14:44;;;;;;;2.60;1.08;;;;;;;15.79;70.10;101626.81;18306538;32;20151;-59
2022/10/29 04:24:48;;;;;;;0.50;0.50;;;;;;;15.72;70.18;101622.47;18291055;32;20127;-59
2022/10/29 04:35:12;;;;;;;0.43;0.43;;;;;;;15.77;70.18;101618.91;18306738;32;20085;-59
2022/10/29 04:45:15;;;;;;;1.37;1.05;;;;;;;15.69;70.33;101623.34;18305836;32;20102;-59
2022/10/29 04:55:20;;;;;;;0.40;0.37;;;;;;;15.73;70.23;101619.81;18305831;32;20154;-59
2022/10/29 05:05:23;;;;;;;1.67;1.08;;;;;;;15.80;70.06;101618.94;18305506;32;20172;-59
2022/10/29 05:15:29;;;;;;;0.85;0.85;;;;;;;15.70;70.49;101624.22;18304948;32;20177;-59
2022/10/29 05:25:36;;;;;;;0.68;0.68;;;;;;;15.77;70.29;101624.19;18306018;32;20098;-59
2022/10/29 05:35:41;;;;;;;0.30;0.30;;;;;;;15.79;70.23;101621.56;18303596;32;20116;-59
2022/10/29 05:45:44;;;;;;;1.33;0.65;;;;;;;15.75;70.37;101630.34;18305253;32;20124;-59
2022/10/29 05:55:49;;;;;;;0.40;0.40;;;;;;;15.71;70.49;101613.69;18303623;32;20141;-59
2022/10/29 06:05:52;;;;;;;0.47;0.47;;;;;;;15.84;70.18;101609.25;18302861;32;20112;-59
2022/10/29 06:15:59;;;;;;;0.32;0.32;;;;;;;15.79;69.90;101606.66;18302289;32;20109;-59
2022/10/29 06:26:03;;;;;;;0.50;0.50;;;;;;;15.89;69.92;101628.53;18301915;32;20103;-59
2022/10/29 06:36:08;;;;;;;0.77;0.73;;;;;;;15.88;69.79;101626.78;18300759;32;20103;-59
2022/10/29 06:46:11;;;;;;;0.80;0.35;;;;;;;15.89;69.75;101617.13;18305284;32;20112;-59
2022/10/29 06:56:16;;;;;;;1.08;0.98;;;;;;;15.91;69.29;101613.63;18308821;32;20093;-59
2022/10/29 07:06:19;;;;;;;0.47;0.47;;;;;;;15.97;68.65;101619.75;18308417;32;20124;-59
2022/10/29 07:16:24;;;;;;;0.85;0.65;;;;;;;15.93;69.06;101640.84;18293780;32;20097;-59
2022/10/29 07:26:27;;;;;;;0.73;0.52;;;;;;;15.87;69.42;101656.63;18306241;32;20119;-59
2022/10/29 07:36:32;;;;;;;0.37;0.37;;;;;;;16.11;68.47;101640.75;18302680;32;20112;-59
2022/10/29 07:46:35;;;;;;;0.75;0.40;;;;;;;16.03;68.38;101631.13;18305285;32;20097;-59
2022/10/29 07:56:40;;;;;;;0.62;0.62;;;;;;;16.07;68.13;101642.53;18306967;32;20090;-59
2022/10/29 08:06:48;;;;;;;0.60;0.60;;;;;;;15.81;68.99;101641.72;18306659;32;20082;-59
2022/10/29 08:16:54;;;;;;;0.43;0.43;;;;;;;15.89;68.61;101639.06;18306632;32;20093;-59
2022/10/29 08:26:57;;;;;;;1.87;0.30;;;;;;;15.98;67.89;101643.44;18306302;32;20133;-59
2022/10/29 08:37:02;;;;;;;0.50;0.50;;;;;;;16.07;67.38;101642.53;18305988;32;20101;-59
2022/10/29 08:47:09;;;;;;;2.67;1.85;;;;;;;15.98;67.90;101626.78;18306060;32;20151;-59
2022/10/29 08:57:16;;;;;;;0.62;0.62;;;;;;;16.02;67.88;101646.91;18305289;32;20108;-59
2022/10/29 09:07:37;;;;;;;0.50;0.50;;;;;;;15.88;67.49;101626.78;18304520;32;20141;-59
2022/10/29 09:17:46;;;;;;;0.73;0.73;;;;;;;16.07;67.18;101635.47;18306031;32;20098;-59
2022/10/29 09:28:00;;;;;;;0.95;0.90;;;;;;;16.17;66.05;101632.78;18304778;32;20108;-59
2022/10/29 09:38:08;;;;;;;2.45;1.30;;;;;;;16.12;66.23;101638.09;18305186;32;20094;-59
2022/10/29 09:48:17;;;;;;;2.05;0.98;;;;;;;15.77;67.02;101624.19;18303823;32;20340;-59
2022/10/29 09:58:24;;;;;;;2.03;1.23;;;;;;;16.10;66.12;101631.97;18304384;32;20158;-59
2022/10/29 10:08:27;;;;;;;0.95;0.88;;;;;;;16.31;65.32;101619.53;18302772;32;20090;-59
2022/10/29 10:18:41;;;;;;;3.47;1.25;;;;;;;16.18;65.77;101601.19;18304527;32;20106;-59
2022/10/29 10:28:44;;;;;;;0.35;0.35;;;;;;;16.31;64.75;101591.44;18310734;32;20100;-59
2022/10/29 10:38:50;;;;;;;0.40;0.40;;;;;;;16.29;65.07;101594.97;18308813;32;20097;-59
2022/10/29 10:48:58;;;;;;;0.30;0.30;;;;;;;16.37;64.53;101585.25;18310035;32;20107;-59
2022/10/29 10:59:05;;;;;;;0.47;0.40;;;;;;;16.66;64.00;101583.28;18309734;32;20090;-59
2022/10/29 11:09:16;;;;;;;1.15;0.93;;;;;;;16.89;63.37;101575.16;18308265;32;20089;-59
2022/10/29 11:19:25;;;;;;;0.45;0.43;;;;;;;16.88;63.17;101557.56;18308051;32;20097;-59
2022/10/29 11:29:39;;;;;;;0.52;0.40;;;;;;;16.90;63.34;101547.91;18307696;32;20089;-59
2022/10/29 11:39:48;;;;;;;0.30;0.30;;;;;;;16.56;63.96;101542.94;18307537;32;20106;-59
2022/10/29 11:50:04;;;;;;;0.50;0.50;;;;;;;16.29;65.35;101548.44;18307095;32;20118;-59
2022/10/29 12:00:13;;;;;;;0.60;0.60;;;;;;;16.88;63.49;101531.19;18307137;32;20085;-59
2022/10/29 12:10:27;;;;;;;1.17;1.08;;;;;;;16.98;63.43;101506.50;18292921;32;20134;-59
2022/10/29 12:20:37;;;;;;;1.95;1.08;;;;;;;17.36;61.97;101493.75;18307374;32;20089;-59
2022/10/29 12:30:47;;;;;;;0.77;0.32;;;;;;;17.29;62.03;101482.41;18307337;32;20109;-59
2022/10/29 12:40:56;;;;;;;0.77;0.77;;;;;;;16.89;63.39;101464.41;18305196;32;20159;-59
2022/10/29 12:51:05;;;;;;;0.25;0.25;;;;;;;16.57;64.06;101461.22;18305743;32;20120;-59
2022/10/29 13:01:43;;;;;;;2.90;1.00;;;;;;;16.28;65.42;101458.84;18305509;32;20111;-59
2022/10/29 13:12:09;;;;;;;0.65;0.40;;;;;;;16.69;64.14;101462.81;18306062;32;20094;-59
2022/10/29 13:22:49;;;;;;;5.15;0.90;;;;;;;16.98;63.74;101458.13;18304785;32;20416;-59
2022/10/29 13:32:52;;;;;;;0.25;0.20;;;;;;;16.72;64.79;101457.53;18303404;32;20145;-59
2022/10/29 13:43:02;;;;;;;1.20;1.10;;;;;;;16.72;64.72;101452.28;18303864;32;20711;-59
2022/10/29 13:53:08;;;;;;;1.80;1.15;;;;;;;16.70;65.14;101450.53;18303344;32;20085;-59
2022/10/29 14:03:20;;;;;;;0.30;0.30;;;;;;;17.10;64.07;101436.03;18303950;32;20093;-59
2022/10/29 14:13:31;;;;;;;0.50;0.50;;;;;;;17.09;63.78;101437.78;18302673;32;20109;-59
2022/10/29 14:23:39;;;;;;;0.30;0.30;;;;;;;17.19;63.56;101433.28;18303211;32;20094;-59
2022/10/29 14:33:43;;;;;;;0.50;0.40;;;;;;;17.29;62.75;101441.94;18302898;32;20097;-59
2022/10/29 14:43:54;;;;;;;0.65;0.62;;;;;;;17.16;62.97;101441.22;18300647;32;20168;-58
2022/10/29 14:53:59;;;;;;;1.25;0.75;;;;;;;16.87;63.72;101437.16;18300266;32;20108;-58
2022/10/29 15:04:04;;;;;;;0.88;0.62;;;;;;;17.01;63.64;101435.25;18289139;32;20442;-60
2022/10/29 15:14:25;;;;;;;0.25;0.25;;;;;;;16.99;63.18;101423.84;18308457;32;20187;-61
2022/10/29 15:24:35;;;;;;;2.78;0.88;;;;;;;16.90;63.44;101408.12;18308027;32;20148;-60
2022/10/29 15:34:39;;;;;;;0.40;0.40;;;;;;;16.68;64.11;101418.03;18293437;32;20141;-58
2022/10/29 15:45:06;;;;;;;1.50;0.93;;;;;;;16.67;64.09;101398.72;18307988;32;20105;-58
2022/10/29 15:55:14;;;;;;;0.68;0.68;;;;;;;16.50;65.15;101414.72;18293247;32;20494;-58
2022/10/29 16:05:19;;;;;;;1.50;0.75;;;;;;;16.66;64.56;101439.16;18307334;32;20121;-59
2022/10/29 16:15:23;;;;;;;0.62;0.62;;;;;;;16.67;64.30;101422.44;18306924;32;20149;-58
2022/10/29 16:25:28;;;;;;;2.42;0.82;;;;;;;16.49;65.10;101418.25;18306602;32;20093;-60
2022/10/29 16:35:31;;;;;;;0.70;0.40;;;;;;;16.56;65.21;101413.78;18306140;32;20115;-59
2022/10/29 16:45:36;;;;;;;1.05;0.70;;;;;;;16.51;65.49;101405.91;18306127;32;20173;-58
2022/10/29 16:55:40;;;;;;;2.45;1.05;;;;;;;16.56;65.30;101409.41;18291658;32;20098;-58
2022/10/29 17:05:46;;;;;;;0.50;0.50;;;;;;;16.54;65.35;101415.56;18306380;32;20419;-58
2022/10/29 17:15:49;;;;;;;2.87;1.08;;;;;;;16.53;65.55;101421.72;18305163;32;20089;-58
2022/10/29 17:25:54;;;;;;;0.50;0.47;;;;;;;16.46;65.61;101400.69;18303765;32;20409;-58
2022/10/29 17:36:02;;;;;;;3.62;1.25;;;;;;;16.45;65.58;101404.22;18290255;32;20180;-58
2022/10/29 17:46:07;;;;;;;1.00;0.88;;;;;;;16.51;65.68;101405.91;18290907;32;20419;-58
2022/10/29 17:56:10;;;;;;;0.88;0.62;;;;;;;16.51;65.72;101400.66;18289304;32;20097;-58
2022/10/29 18:06:15;;;;;;;0.82;0.82;;;;;;;16.45;66.21;101398.06;18303464;32;20098;-58
2022/10/29 18:16:20;;;;;;;1.70;0.77;;;;;;;16.45;66.38;101405.97;18288580;32;20149;-58
2022/10/29 18:26:27;;;;;;;0.70;0.50;;;;;;;16.44;66.46;101404.22;18288018;32;20094;-58
2022/10/29 18:36:30;;;;;;;0.70;0.62;;;;;;;16.47;66.26;101410.34;18287233;32;20153;-58
2022/10/29 18:46:35;;;;;;;0.85;0.52;;;;;;;16.47;66.34;101402.44;18296185;32;20540;-58
2022/10/29 18:56:38;;;;;;;0.98;0.62;;;;;;;16.38;66.64;101399.91;18295060;32;20140;-58
2022/10/29 19:06:43;;;;;;;1.50;1.05;;;;;;;16.34;66.92;101377.13;18308306;32;20101;-62
2022/10/29 19:16:46;;;;;;;3.40;1.05;;;;;;;16.39;66.65;101380.56;18308629;32;20121;-58
2022/10/29 19:26:51;;;;;;;1.65;0.70;;;;;;;16.43;66.60;101373.50;18307959;32;20090;-58
2022/10/29 19:36:54;;;;;;;0.60;0.60;;;;;;;16.32;67.15;101379.75;18294057;32;20193;-58
2022/10/29 19:46:58;;;;;;;1.05;0.95;;;;;;;16.30;66.95;101371.00;18294243;32;20447;-58
2022/10/29 19:57:01;;;;;;;2.47;1.70;;;;;;;16.30;67.02;101351.69;18306792;32;20100;-58
2022/10/29 20:07:06;;;;;;;0.73;0.73;;;;;;;16.40;66.50;101350.69;18292909;32;20089;-58
2022/10/29 20:17:10;;;;;;;2.90;1.80;;;;;;;16.27;66.72;101354.34;18306599;32;20184;-58
2022/10/29 20:27:14;;;;;;;1.25;0.60;;;;;;;16.28;66.75;101351.72;18292082;32;20176;-58
2022/10/29 20:37:18;;;;;;;1.00;0.77;;;;;;;16.25;66.79;101341.19;18305998;32;20089;-58
2022/10/29 20:47:22;;;;;;;1.27;0.68;;;;;;;16.26;66.89;101352.63;18305358;32;20094;-59
2022/10/29 20:57:26;;;;;;;0.90;0.90;;;;;;;16.24;66.94;101355.25;18305693;32;20098;-60
2022/10/29 21:07:30;;;;;;;1.27;0.40;;;;;;;16.29;67.03;101363.13;18304390;32;20206;-58
2022/10/29 21:17:34;;;;;;;1.40;0.50;;;;;;;16.24;67.29;101371.06;18305069;32;20426;-58
2022/10/29 21:27:38;;;;;;;1.55;1.05;;;;;;;16.23;67.28;101371.97;18291753;32;20093;-62
2022/10/29 21:37:41;;;;;;;1.08;0.77;;;;;;;16.31;67.06;101370.13;18304222;32;20488;-58
2022/10/29 21:47:46;;;;;;;1.65;0.40;;;;;;;16.27;67.40;101370.16;18290853;32;20438;-58
2022/10/29 21:57:50;;;;;;;1.27;0.52;;;;;;;16.25;67.44;101359.63;18303642;32;20135;-58
2022/10/29 22:07:56;;;;;;;2.08;1.02;;;;;;;16.23;67.62;101354.41;18302904;32;20098;-62
2022/10/29 22:18:00;;;;;;;0.30;0.30;;;;;;;16.28;67.54;101348.19;18302524;32;20089;-60
2022/10/29 22:28:06;;;;;;;0.68;0.47;;;;;;;16.06;68.49;101344.03;18301640;32;20089;-58
2022/10/29 22:38:09;;;;;;;0.45;0.45;;;;;;;16.07;68.12;101329.09;18287380;32;20110;-58
2022/10/29 22:48:13;;;;;;;3.30;0.82;;;;;;;16.19;67.57;101322.84;18237664;32;20106;-59
2022/10/29 22:58:17;;;;;;;2.22;1.33;;;;;;;16.18;67.49;101313.19;18237171;32;20089;-58
2022/10/29 23:08:21;;;;;;;0.68;0.65;;;;;;;16.14;67.60;101311.47;18222643;32;20130;-58
2022/10/29 23:18:24;;;;;;;2.00;0.95;;;;;;;16.11;67.57;101312.38;18221834;32;20145;-58
2022/10/29 23:28:30;;;;;;;1.15;1.05;;;;;;;16.15;67.50;101306.19;18228056;32;20098;-58
2022/10/29 23:38:34;;;;;;;4.47;0.68;;;;;;;16.06;67.57;101303.66;18247983;32;20106;-58
2022/10/29 23:48:38;;;;;;;0.30;0.30;;;;;;;16.07;67.51;101298.34;18307261;32;20089;-58
2022/10/29 23:58:42;;;;;;;1.45;0.73;;;;;;;16.03;67.42;101286.12;18307205;32;20115;-58
